createdAt,value
2019-02-20T00:00:49.733Z,22.93
2019-02-20T00:03:20.076Z,23.13
2019-02-20T00:05:50.401Z,22.20
2019-02-20T00:08:20.642Z,23.50
2019-02-20T00:10:50.929Z,21.97
2019-02-20T00:13:21.213Z,22.03
2019-02-20T00:15:51.462Z,23.07
2019-02-20T00:18:21.708Z,21.33
2019-02-20T00:20:51.973Z,21.87
2019-02-20T00:23:22.259Z,21.63
2019-02-20T00:25:52.530Z,21.57
2019-02-20T00:28:22.785Z,21.37
2019-02-20T00:30:53.077Z,22.00
2019-02-20T00:33:23.331Z,21.67
2019-02-20T00:35:53.632Z,18.83
2019-02-20T00:38:23.891Z,20.73
2019-02-20T00:40:54.154Z,21.07
2019-02-20T00:43:24.515Z,21.73
2019-02-20T00:46:13.618Z,22.53
2019-02-20T00:49:15.057Z,20.03
2019-02-20T00:52:10.087Z,19.93
2019-02-20T00:54:40.381Z,19.63
2019-02-20T00:57:10.661Z,21.27
2019-02-20T00:59:40.982Z,20.10
2019-02-20T01:02:11.301Z,20.57
2019-02-20T01:04:41.556Z,19.90
2019-02-20T01:07:11.800Z,20.23
2019-02-20T01:09:42.104Z,20.37
2019-02-20T01:12:12.413Z,19.63
2019-02-20T01:14:42.702Z,20.07
2019-02-20T01:17:13.939Z,18.83
2019-02-20T01:19:44.220Z,18.93
2019-02-20T01:22:14.476Z,20.37
2019-02-20T01:24:44.765Z,18.73
2019-02-20T01:27:15.017Z,18.13
2019-02-20T01:29:45.260Z,18.73
2019-02-20T01:32:15.532Z,18.70
2019-02-20T01:34:45.839Z,19.53
2019-02-20T01:37:16.089Z,18.97
2019-02-20T01:39:46.459Z,18.70
2019-02-20T01:42:16.791Z,19.47
2019-02-20T01:44:47.045Z,19.07
2019-02-20T01:47:17.288Z,19.53
2019-02-20T01:49:47.553Z,17.07
2019-02-20T01:52:17.826Z,19.70
2019-02-20T01:54:48.108Z,18.67
2019-02-20T01:57:18.343Z,18.30
2019-02-20T01:59:48.632Z,18.60
2019-02-20T02:02:18.874Z,17.83
2019-02-20T02:04:49.216Z,18.70
2019-02-20T02:07:19.468Z,18.80
2019-02-20T02:09:49.710Z,18.00
2019-02-20T02:12:19.981Z,16.87
2019-02-20T02:14:50.238Z,17.80
2019-02-20T02:17:20.516Z,15.93
2019-02-20T02:19:50.758Z,18.43
2019-02-20T02:22:21.051Z,17.37
2019-02-20T02:24:51.318Z,16.90
2019-02-20T02:27:21.605Z,15.87
2019-02-20T02:29:51.874Z,16.83
2019-02-20T02:32:22.146Z,16.37
2019-02-20T02:34:52.461Z,15.53
2019-02-20T02:37:22.753Z,14.63
2019-02-20T02:39:53.013Z,14.13
2019-02-20T02:42:23.343Z,15.37
2019-02-20T02:44:53.617Z,14.90
2019-02-20T02:47:23.844Z,14.93
2019-02-20T02:49:54.110Z,15.63
2019-02-20T02:52:24.362Z,15.23
2019-02-20T02:54:55.614Z,14.53
2019-02-20T02:57:25.861Z,15.73
2019-02-20T02:59:56.134Z,16.83
2019-02-20T03:02:26.372Z,14.00
2019-02-20T03:04:56.611Z,15.10
2019-02-20T03:07:26.907Z,15.50
2019-02-20T03:09:57.187Z,15.97
2019-02-20T03:12:27.462Z,14.77
2019-02-20T03:14:57.689Z,15.37
2019-02-20T03:17:27.942Z,15.33
2019-02-20T03:19:58.243Z,15.23
2019-02-20T03:22:28.529Z,14.43
2019-02-20T03:24:58.779Z,14.47
2019-02-20T03:27:29.034Z,14.60
2019-02-20T03:29:59.302Z,14.80
2019-02-20T03:32:29.545Z,14.77
2019-02-20T03:34:59.799Z,13.50
2019-02-20T03:37:30.046Z,15.33
2019-02-20T03:40:00.351Z,13.77
2019-02-20T03:42:30.606Z,13.90
2019-02-20T03:45:00.864Z,12.77
2019-02-20T03:47:31.119Z,13.27
2019-02-20T03:50:01.395Z,13.47
2019-02-20T03:52:31.651Z,12.37
2019-02-20T03:55:01.907Z,12.27
2019-02-20T03:57:32.185Z,13.23
2019-02-20T04:00:02.448Z,9.80
2019-02-20T04:02:32.709Z,12.97
2019-02-20T04:05:03.026Z,13.33
2019-02-20T04:07:33.288Z,13.60
2019-02-20T04:10:03.582Z,12.17
2019-02-20T04:12:33.830Z,13.43
2019-02-20T04:15:04.228Z,13.50
2019-02-20T04:17:34.471Z,13.00
2019-02-20T04:20:05.635Z,11.53
2019-02-20T04:22:35.887Z,11.43
2019-02-20T04:25:06.478Z,11.07
2019-02-20T04:27:36.768Z,11.50
2019-02-20T04:30:07.399Z,10.83
2019-02-20T04:32:37.687Z,11.40
2019-02-20T04:35:07.982Z,10.77
2019-02-20T04:37:38.402Z,10.97
2019-02-20T04:40:08.686Z,10.80
2019-02-20T04:42:38.952Z,10.07
2019-02-20T04:45:09.250Z,9.77
2019-02-20T04:47:39.518Z,9.13
2019-02-20T04:50:10.162Z,8.93
2019-02-20T04:52:40.441Z,7.27
2019-02-20T04:55:10.720Z,7.27
2019-02-20T04:57:41.017Z,6.67
2019-02-20T05:00:12.952Z,5.70
2019-02-20T05:02:43.194Z,4.90
2019-02-20T05:05:13.447Z,3.77
2019-02-20T05:07:43.734Z,3.97
2019-02-20T05:10:14.010Z,3.50
2019-02-20T05:12:44.261Z,3.77
2019-02-20T05:15:14.515Z,3.13
2019-02-20T05:17:44.778Z,3.10
2019-02-20T05:20:15.029Z,3.13
2019-02-20T05:22:45.389Z,3.13
2019-02-20T05:25:15.690Z,3.50
2019-02-20T05:27:46.015Z,3.30
2019-02-20T05:30:16.292Z,3.80
2019-02-20T05:32:46.588Z,3.03
2019-02-20T05:35:17.096Z,3.10
2019-02-20T05:37:47.385Z,3.33
2019-02-20T05:40:17.612Z,3.10
2019-02-20T05:42:48.390Z,3.20
2019-02-20T05:45:18.754Z,3.63
2019-02-20T05:47:49.031Z,3.00
2019-02-20T05:50:19.283Z,2.70
2019-02-20T05:52:49.550Z,2.63
2019-02-20T05:55:19.850Z,2.90
2019-02-20T05:57:50.096Z,2.60
2019-02-20T06:00:22.552Z,2.80
2019-02-20T06:02:52.783Z,2.87
2019-02-20T06:05:23.037Z,2.23
2019-02-20T06:07:53.310Z,2.63
2019-02-20T06:10:23.539Z,2.50
2019-02-20T06:12:53.784Z,2.70
2019-02-20T06:15:24.050Z,2.90
2019-02-20T06:17:54.304Z,2.73
2019-02-20T06:20:24.573Z,2.67
2019-02-20T06:22:54.833Z,2.50
2019-02-20T06:25:25.102Z,2.93
2019-02-20T06:27:55.374Z,3.20
2019-02-20T06:30:25.645Z,3.27
2019-02-20T06:32:55.906Z,3.13
2019-02-20T06:35:26.223Z,2.93
2019-02-20T06:37:56.557Z,3.40
2019-02-20T06:40:26.813Z,2.53
2019-02-20T06:42:57.048Z,3.10
2019-02-20T06:45:27.392Z,3.20
2019-02-20T06:47:57.698Z,2.60
2019-02-20T06:50:27.929Z,2.37
2019-02-20T06:52:58.163Z,2.63
2019-02-20T06:55:28.426Z,2.57
2019-02-20T06:57:58.712Z,2.70
2019-02-20T07:00:28.938Z,2.77
2019-02-20T07:02:59.274Z,2.97
2019-02-20T07:05:37.624Z,2.57
2019-02-20T07:08:49.061Z,2.83
2019-02-20T07:12:03.445Z,2.70
2019-02-20T07:15:13.131Z,2.50
2019-02-20T07:18:36.375Z,2.50
2019-02-20T07:21:52.184Z,2.40
2019-02-20T07:24:43.910Z,2.23
2019-02-20T07:27:55.058Z,2.93
2019-02-20T07:30:25.296Z,2.73
2019-02-20T07:32:55.573Z,2.33
2019-02-20T07:35:25.954Z,2.40
2019-02-20T07:37:56.236Z,2.87
2019-02-20T07:40:26.531Z,3.20
2019-02-20T07:42:56.788Z,3.50
2019-02-20T07:45:27.027Z,2.90
2019-02-20T07:47:57.308Z,3.20
2019-02-20T07:50:27.572Z,3.03
2019-02-20T07:52:57.824Z,2.20
2019-02-20T07:55:28.254Z,3.10
2019-02-20T07:57:58.525Z,3.40
2019-02-20T08:00:28.752Z,3.10
2019-02-20T08:02:58.992Z,2.60
2019-02-20T08:05:29.264Z,2.40
2019-02-20T08:08:18.517Z,2.17
2019-02-20T08:10:48.845Z,2.23
2019-02-20T08:13:19.116Z,2.10
2019-02-20T08:15:49.383Z,2.47
2019-02-20T08:18:19.662Z,2.33
2019-02-20T08:20:49.959Z,2.77
2019-02-20T08:23:20.231Z,2.80
2019-02-20T08:25:50.555Z,2.73
2019-02-20T08:28:20.866Z,2.70
2019-02-20T08:30:51.121Z,2.53
2019-02-20T08:33:21.426Z,2.40
2019-02-20T08:35:51.685Z,3.10
2019-02-20T08:38:21.964Z,2.90
2019-02-20T08:40:52.237Z,2.10
2019-02-20T08:43:22.621Z,3.23
2019-02-20T08:45:53.189Z,2.70
2019-02-20T08:48:23.513Z,2.63
2019-02-20T08:50:53.743Z,2.90
2019-02-20T08:53:23.985Z,3.00
2019-02-20T08:55:54.292Z,3.00
2019-02-20T08:58:24.523Z,2.70
2019-02-20T09:00:54.781Z,3.13
2019-02-20T09:03:25.184Z,2.70
2019-02-20T09:05:55.411Z,3.37
2019-02-20T09:08:25.675Z,2.87
2019-02-20T09:10:56.426Z,2.57
2019-02-20T09:13:26.698Z,2.57
2019-02-20T09:15:57.024Z,1.33
2019-02-20T09:18:27.269Z,2.50
2019-02-20T09:20:57.565Z,2.30
2019-02-20T09:23:27.811Z,2.47
2019-02-20T09:25:58.075Z,1.93
2019-02-20T09:28:28.335Z,2.30
2019-02-20T09:30:58.640Z,2.43
2019-02-20T09:33:28.919Z,2.20
2019-02-20T09:35:59.190Z,2.33
2019-02-20T09:38:29.448Z,2.30
2019-02-20T09:40:59.724Z,2.20
2019-02-20T09:43:29.944Z,2.10
2019-02-20T09:46:00.227Z,2.10
2019-02-20T09:48:30.495Z,1.90
2019-02-20T09:51:00.838Z,2.03
2019-02-20T09:53:31.071Z,1.87
2019-02-20T09:56:01.365Z,1.70
2019-02-20T09:58:31.689Z,2.00
2019-02-20T10:01:02.996Z,2.10
2019-02-20T10:03:33.382Z,2.57
2019-02-20T10:06:03.625Z,2.40
2019-02-20T10:08:33.902Z,2.47
2019-02-20T10:11:04.189Z,2.10
2019-02-20T10:13:34.425Z,2.00
2019-02-20T10:16:04.663Z,2.17
2019-02-20T10:18:34.934Z,1.93
2019-02-20T10:21:05.169Z,2.20
2019-02-20T10:23:35.483Z,2.03
2019-02-20T10:26:05.726Z,2.10
2019-02-20T10:28:36.025Z,2.30
2019-02-20T10:31:06.260Z,2.13
2019-02-20T10:33:36.483Z,2.20
2019-02-20T10:36:06.761Z,2.10
2019-02-20T10:38:37.032Z,2.00
2019-02-20T10:41:07.275Z,2.03
2019-02-20T10:43:37.514Z,2.30
2019-02-20T10:46:07.803Z,1.60
2019-02-20T10:48:38.050Z,1.43
2019-02-20T10:51:08.298Z,1.10
2019-02-20T10:53:38.547Z,1.27
2019-02-20T10:56:09.717Z,1.43
2019-02-20T10:58:40.283Z,1.60
2019-02-20T11:01:10.542Z,1.63
2019-02-20T11:03:40.848Z,1.30
2019-02-20T11:06:11.150Z,1.57
2019-02-20T11:08:41.358Z,1.50
2019-02-20T11:11:11.619Z,1.60
2019-02-20T11:13:41.934Z,1.20
2019-02-20T11:16:12.166Z,1.50
2019-02-20T11:18:42.436Z,1.57
2019-02-20T11:21:12.658Z,1.40
2019-02-20T11:23:42.971Z,1.90
2019-02-20T11:26:18.276Z,1.50
2019-02-20T11:28:45.160Z,1.50
2019-02-20T11:31:15.432Z,1.80
2019-02-20T11:33:45.809Z,1.70
2019-02-20T11:36:16.052Z,1.63
2019-02-20T11:38:46.294Z,1.57
2019-02-20T11:41:16.597Z,1.77
2019-02-20T11:43:46.857Z,1.87
2019-02-20T11:46:17.114Z,1.90
2019-02-20T11:48:47.370Z,2.30
2019-02-20T11:51:17.854Z,1.90
2019-02-20T11:53:48.128Z,2.50
2019-02-20T11:56:26.229Z,2.13
2019-02-20T11:58:50.273Z,2.73
2019-02-20T12:01:20.537Z,2.17
2019-02-20T12:03:50.767Z,2.10
2019-02-20T12:06:21.188Z,1.70
2019-02-20T12:08:51.508Z,1.97
2019-02-20T12:11:21.754Z,2.20
2019-02-20T12:13:52.057Z,2.30
2019-02-20T12:16:22.594Z,2.27
2019-02-20T12:18:53.161Z,2.50
2019-02-20T12:21:23.522Z,2.53
2019-02-20T12:23:53.879Z,2.27
2019-02-20T12:26:24.163Z,1.97
2019-02-20T12:28:54.438Z,2.10
2019-02-20T12:31:24.717Z,2.00
2019-02-20T12:33:54.969Z,2.03
2019-02-20T12:36:25.241Z,2.47
2019-02-20T12:38:55.520Z,2.20
2019-02-20T12:41:25.773Z,2.00
2019-02-20T12:43:56.099Z,2.00
2019-02-20T12:46:26.302Z,1.80
2019-02-20T12:48:56.577Z,1.90
2019-02-20T12:51:26.854Z,2.00
2019-02-20T12:53:57.116Z,1.90
2019-02-20T12:56:27.377Z,1.67
2019-02-20T12:58:57.611Z,2.10
2019-02-20T13:01:27.983Z,1.80
2019-02-20T13:03:58.300Z,1.60
2019-02-20T13:06:29.742Z,1.90
2019-02-20T13:09:00.117Z,1.60
2019-02-20T13:11:30.433Z,1.80
2019-02-20T13:14:00.729Z,1.57
2019-02-20T13:16:31.053Z,1.50
2019-02-20T13:19:01.339Z,1.50
2019-02-20T13:21:31.586Z,1.60
2019-02-20T13:24:01.833Z,1.60
2019-02-20T13:26:32.108Z,1.70
2019-02-20T13:29:02.362Z,1.70
2019-02-20T13:31:32.625Z,1.73
2019-02-20T13:34:02.876Z,1.40
2019-02-20T13:36:33.168Z,1.70
2019-02-20T13:39:04.763Z,1.67
2019-02-20T13:41:35.051Z,1.77
2019-02-20T13:44:05.303Z,2.17
2019-02-20T13:46:35.581Z,2.03
2019-02-20T13:49:05.837Z,2.00
2019-02-20T13:51:36.439Z,2.20
2019-02-20T13:54:06.751Z,2.37
2019-02-20T13:56:37.015Z,1.83
2019-02-20T13:59:07.315Z,2.20
2019-02-20T14:01:37.558Z,1.73
2019-02-20T14:04:07.854Z,1.90
2019-02-20T14:06:38.162Z,1.70
2019-02-20T14:09:08.956Z,1.43
2019-02-20T14:11:39.221Z,2.10
2019-02-20T14:14:09.509Z,2.57
2019-02-20T14:16:39.825Z,1.60
2019-02-20T14:19:10.100Z,2.20
2019-02-20T14:21:40.397Z,1.90
2019-02-20T14:24:10.656Z,2.10
2019-02-20T14:26:40.898Z,2.20
2019-02-20T14:29:11.157Z,2.13
2019-02-20T14:31:42.822Z,1.70
2019-02-20T14:34:13.489Z,2.20
2019-02-20T14:36:43.767Z,1.80
2019-02-20T14:39:14.038Z,1.50
2019-02-20T14:41:44.314Z,1.93
2019-02-20T14:44:14.563Z,2.20
2019-02-20T14:46:44.830Z,1.80
2019-02-20T14:49:15.424Z,1.80
2019-02-20T14:51:45.733Z,2.00
2019-02-20T14:54:16.335Z,1.60
2019-02-20T14:56:46.605Z,1.10
2019-02-20T14:59:16.885Z,2.10
2019-02-20T15:01:47.261Z,1.77
2019-02-20T15:04:17.501Z,2.00
2019-02-20T15:06:47.765Z,1.70
2019-02-20T15:09:18.102Z,2.17
2019-02-20T15:11:48.344Z,2.30
2019-02-20T15:14:18.666Z,2.10
2019-02-20T15:16:49.252Z,2.27
2019-02-20T15:19:19.543Z,2.47
2019-02-20T15:21:49.804Z,2.13
2019-02-20T15:24:20.100Z,2.50
2019-02-20T15:26:50.328Z,2.60
2019-02-20T15:29:20.631Z,2.60
2019-02-20T15:31:51.546Z,2.50
2019-02-20T15:34:21.801Z,2.17
2019-02-20T15:36:52.026Z,1.93
2019-02-20T15:39:22.285Z,2.33
2019-02-20T15:41:52.530Z,1.60
2019-02-20T15:44:23.191Z,2.00
2019-02-20T15:46:53.830Z,1.90
2019-02-20T15:49:24.092Z,2.10
2019-02-20T15:51:54.396Z,2.03
2019-02-20T15:54:24.657Z,2.60
2019-02-20T15:56:55.005Z,1.90
2019-02-20T15:59:25.327Z,2.07
2019-02-20T16:01:55.616Z,2.37
2019-02-20T16:04:25.893Z,1.63
2019-02-20T16:06:56.510Z,3.17
2019-02-20T16:09:26.851Z,2.40
2019-02-20T16:11:57.094Z,2.20
2019-02-20T16:14:27.616Z,2.00
2019-02-20T16:16:57.891Z,1.73
2019-02-20T16:19:28.366Z,1.67
2019-02-20T16:21:58.637Z,1.70
2019-02-20T16:24:28.917Z,2.00
2019-02-20T16:26:59.181Z,1.90
2019-02-20T16:29:29.877Z,1.90
2019-02-20T16:32:00.117Z,1.80
2019-02-20T16:34:30.403Z,2.20
2019-02-20T16:37:00.694Z,2.57
2019-02-20T16:39:30.994Z,2.17
2019-02-20T16:42:01.347Z,2.53
2019-02-20T16:44:31.588Z,2.40
2019-02-20T16:47:01.889Z,2.13
2019-02-20T16:49:32.158Z,2.20
2019-02-20T16:52:02.518Z,2.20
2019-02-20T16:54:32.850Z,2.07
2019-02-20T16:57:03.164Z,2.10
2019-02-20T16:59:33.506Z,2.10
2019-02-20T17:02:03.850Z,2.10
2019-02-20T17:04:34.099Z,2.60
2019-02-20T17:07:04.470Z,1.93
2019-02-20T17:09:34.950Z,1.67
2019-02-20T17:12:06.012Z,2.00
2019-02-20T17:14:36.637Z,1.13
2019-02-20T17:17:07.489Z,1.33
2019-02-20T17:19:37.694Z,1.83
2019-02-20T17:22:07.989Z,2.30
2019-02-20T17:24:38.274Z,3.07
2019-02-20T17:27:08.495Z,1.80
2019-02-20T17:29:38.804Z,1.80
2019-02-20T17:32:09.041Z,2.23
2019-02-20T17:34:39.309Z,1.23
2019-02-20T17:37:09.549Z,2.07
2019-02-20T17:39:39.804Z,1.40
2019-02-20T17:42:10.114Z,1.37
2019-02-20T17:44:42.131Z,1.43
2019-02-20T17:47:12.319Z,1.60
2019-02-20T17:49:42.590Z,1.80
2019-02-20T17:52:12.866Z,1.90
2019-02-20T17:54:43.414Z,2.83
2019-02-20T17:57:13.678Z,1.87
2019-02-20T17:59:45.222Z,1.90
2019-02-20T18:02:34.667Z,1.90
2019-02-20T18:05:08.382Z,1.57
2019-02-20T18:07:38.630Z,1.73
2019-02-20T18:10:09.361Z,2.10
2019-02-20T18:12:39.671Z,1.80
2019-02-20T18:15:10.000Z,1.90
2019-02-20T18:17:40.293Z,1.30
2019-02-20T18:20:12.203Z,1.53
2019-02-20T18:22:43.782Z,1.50
2019-02-20T18:25:14.437Z,1.40
2019-02-20T18:27:44.691Z,1.90
2019-02-20T18:30:15.556Z,1.80
2019-02-20T18:32:45.806Z,1.80
2019-02-20T18:35:16.156Z,1.77
2019-02-20T18:37:46.452Z,2.07
2019-02-20T18:40:16.812Z,2.20
2019-02-20T18:42:48.516Z,1.97
2019-02-20T18:45:18.840Z,1.50
2019-02-20T18:47:49.139Z,1.67
2019-02-20T18:50:19.446Z,1.30
2019-02-20T18:52:49.796Z,1.70
2019-02-20T18:55:20.039Z,1.70
2019-02-20T18:57:53.468Z,1.67
2019-02-20T19:00:23.714Z,3.23
2019-02-20T19:02:54.021Z,1.73
2019-02-20T19:05:24.414Z,2.50
2019-02-20T19:07:55.074Z,2.10
2019-02-20T19:10:30.044Z,1.97
2019-02-20T19:13:52.541Z,2.50
2019-02-20T19:16:45.455Z,1.70
2019-02-20T19:19:36.084Z,3.07
2019-02-20T19:22:44.135Z,3.90
2019-02-20T19:26:07.624Z,4.20
2019-02-20T19:29:24.926Z,3.13
2019-02-20T19:32:48.345Z,4.13
2019-02-20T19:36:12.925Z,2.83
2019-02-20T19:39:08.742Z,4.10
2019-02-20T19:42:19.265Z,4.93
2019-02-20T19:45:30.664Z,4.60
2019-02-20T19:48:43.400Z,4.90
2019-02-20T19:51:27.155Z,6.47
2019-02-20T19:54:30.546Z,6.90
2019-02-20T19:57:37.972Z,2.90
2019-02-20T20:01:04.548Z,5.60
2019-02-20T20:04:05.002Z,5.57
2019-02-20T20:07:07.411Z,2.60
2019-02-20T20:10:15.076Z,2.33
2019-02-20T20:13:35.361Z,1.93
2019-02-20T20:16:33.746Z,2.07
2019-02-20T20:19:40.216Z,1.77
2019-02-20T20:22:57.332Z,2.13
2019-02-20T20:26:13.348Z,2.27
2019-02-20T20:29:23.937Z,2.33
2019-02-20T20:32:13.367Z,2.37
2019-02-20T20:35:34.744Z,2.13
2019-02-20T20:38:49.246Z,2.33
2019-02-20T20:41:57.555Z,2.33
2019-02-20T20:44:53.693Z,1.80
2019-02-20T20:47:56.047Z,1.40
2019-02-20T20:51:03.091Z,2.13
2019-02-20T20:54:09.718Z,1.93
2019-02-20T20:57:30.169Z,2.20
2019-02-20T21:00:26.119Z,2.50
2019-02-20T21:03:01.422Z,2.10
2019-02-20T21:05:58.053Z,1.83
2019-02-20T21:08:41.226Z,2.87
2019-02-20T21:11:49.389Z,2.10
2019-02-20T21:15:12.522Z,2.60
2019-02-20T21:18:32.602Z,2.90
2019-02-20T21:21:39.870Z,2.20
2019-02-20T21:24:56.842Z,2.03
2019-02-20T21:27:57.792Z,2.47
2019-02-20T21:31:14.246Z,2.50
2019-02-20T21:34:14.354Z,3.10
2019-02-20T21:37:09.433Z,4.23
2019-02-20T21:39:51.310Z,3.40
2019-02-20T21:42:55.521Z,3.53
2019-02-20T21:45:58.018Z,3.10
2019-02-20T21:49:08.034Z,3.67
2019-02-20T21:52:03.656Z,3.37
2019-02-20T21:55:00.587Z,2.80
2019-02-20T21:58:04.173Z,2.90
2019-02-20T22:00:58.585Z,2.80
2019-02-20T22:04:03.664Z,3.50
2019-02-20T22:07:12.855Z,3.00
2019-02-20T22:10:29.974Z,2.63
2019-02-20T22:13:38.355Z,2.83
2019-02-20T22:16:43.400Z,2.90
2019-02-20T22:19:50.593Z,3.23
2019-02-20T22:23:10.790Z,2.40
2019-02-20T22:26:14.721Z,2.30
2019-02-20T22:28:57.825Z,2.37
2019-02-20T22:32:04.700Z,2.30
2019-02-20T22:35:06.998Z,1.90
2019-02-20T22:38:07.476Z,2.00
2019-02-20T22:41:31.173Z,3.07
2019-02-20T22:44:20.060Z,2.50
2019-02-20T22:47:13.137Z,2.50
2019-02-20T22:50:21.122Z,2.13
2019-02-20T22:53:12.818Z,2.47
2019-02-20T22:56:00.786Z,1.80
2019-02-20T22:59:08.869Z,2.40
2019-02-20T23:02:29.110Z,2.20
2019-02-20T23:05:40.389Z,2.17
2019-02-20T23:08:54.571Z,1.90
2019-02-20T23:11:54.337Z,2.37
2019-02-20T23:14:40.331Z,2.20
2019-02-20T23:17:10.610Z,2.47
2019-02-20T23:19:40.874Z,2.30
2019-02-20T23:22:11.167Z,2.27
2019-02-20T23:24:42.151Z,2.47
2019-02-20T23:27:12.502Z,2.33
2019-02-20T23:29:42.753Z,2.13
2019-02-20T23:32:13.014Z,2.03
2019-02-20T23:34:43.373Z,1.97
2019-02-20T23:37:13.645Z,2.17
2019-02-20T23:39:43.918Z,2.73
2019-02-20T23:42:14.178Z,2.10
2019-02-20T23:44:44.450Z,1.80
2019-02-20T23:47:14.686Z,1.70
2019-02-20T23:49:44.985Z,2.10
2019-02-20T23:52:15.252Z,1.80
2019-02-20T23:54:45.573Z,1.90
2019-02-20T23:57:15.749Z,1.70
2019-02-20T23:59:46.051Z,1.93
